Pagina principale
METAR-TAF:

METAR-TAF

Aeroporti :

Northolt, Inghilterra

latitudine: 51-33N, longitudine: 000-25W, altezza: 38 m

Osservazione

Il bollettino è stato emesso 1 ora e 4 minuti fa, alle 23:50 UTC
Vento 8 kt da est
Temperature 15°C
Umidità 55%
Pressione 1022 hPa
Visibilità 10 km o più

METAR: EGWU 302350Z AUTO 08008KT 9999 // NCD 15/06 Q1022

Ora: 01:54 (00:54 UTC)

Previsione

Il bollettino è stato emesso 5 ore e 30 minuti fa, alle 19:24 UTC
Previsione valida dal 30 alle 21 UTC al 31 alle 15 UTC
Vento 12 kt da est
Visibilità 10 km o più
nessuna nube inferiore a 1500 m e nessun cumulonembo

TAF: EGWU 301924Z 3021/3115 10012KT CAVOK

Osservazioni e previsioni meteorologiche di più di 4000 aeroporti (messaggi METAR e TAF).

Le stazioni disponibili sono rappresentate dai dischi gialli e rossi sulla carta.

Puntare il mouse per vedere il nome della stazione.

Clicca sopra per visualizzare le osservazioni e previsioni meteorologiche.

Per cambiare la mappa : fare clic sui pulsanti verdi con una croce nera per ingrandire, il pulsante verde con un trattino per diminuire, o sulla freccia verde per le mappe adiacenti.


METAR-TAF: